GMAD/AGA METAR and TAF weather

Enter ICAO airport designator
Station Type Date Time Source
GMAD METAR 2018/10/21 05:30 UTC NOAA

GMAD 210530Z 05009KT 9999 FEW020 17/14 Q1015 NOSIG


Station Type Date Time Source
GMAD Decoded METAR 2018/10/21 05:30 UTC NOAA

Agadir Al Massira, Morocco (GMAD) 30-20N 009-24W 74M
Oct 21, 2018 - 01:30 AM EDT / 2018.10.21 0530 UTC
Wind: from the NE (050 degrees) at 10 MPH (9 KT):0
Visibility: greater than 7 mile(s):0
Sky conditions: mostly clear
Temperature: 62 F (17 C)
Dew Point: 57 F (14 C)
Relative Humidity: 82%
Pressure (altimeter): 29.97 in. Hg (1015 hPa)
ob: GMAD 210530Z 05009KT 9999 FEW020 17/14 Q1015 NOSIG
cycle: 5

Station Type Date Time Source
GMAD TAF 2018/10/21 06:36 UTC NOAA

TAF GMAD 210500Z 2106/2212 06005KT 8000 SCT020
BECMG 2112/2114 28012KT
BECMG 2119/2122 16006KT


Example: see airport list